Time;durP1;ratioP1;P1;durP2;ratioP2;P2;SDS_P1;SDS_P2;PMS_P1;PMS_P2;Temp;Humidity;BMP_temperature;BMP_pressure;BME280_temperature;BME280_humidity;BME280_pressure;Samples;Min_cycle;Max_cycle;Signal;HPM_P1;HPM_P2
2022/10/04 00:01:11;;;;;;;5.43;1.90;;;;;;;10.50;65.06;95444.56;5011606;28;20052;-75
2022/10/04 00:03:43;;;;;;;4.85;2.53;;;;;;;10.63;64.58;95459.94;5011842;28;20056;-76
2022/10/04 00:06:22;;;;;;;6.43;2.17;;;;;;;10.33;65.30;95428.91;5011001;28;20476;-76
2022/10/04 00:08:55;;;;;;;14.02;2.35;;;;;;;10.22;65.19;95417.50;4993796;28;20042;-76
2022/10/04 00:11:30;;;;;;;7.95;2.67;;;;;;;10.41;65.64;95442.44;5011132;28;20124;-76
2022/10/04 00:13:58;;;;;;;3.20;2.08;;;;;;;10.68;65.29;95489.88;4993248;28;20029;-76
2022/10/04 00:16:34;;;;;;;7.40;2.47;;;;;;;10.50;65.38;95437.41;4992943;28;20034;-75
2022/10/04 00:19:14;;;;;;;5.80;2.10;;;;;;;10.80;65.25;95477.16;5011371;28;20058;-75
2022/10/04 00:21:52;;;;;;;2.17;1.90;;;;;;;10.74;65.27;95480.88;5010058;28;20034;-75
2022/10/04 00:24:22;;;;;;;2.78;1.70;;;;;;;10.72;64.68;95480.34;4993411;28;20050;-76
2022/10/04 00:26:47;;;;;;;3.10;1.95;;;;;;;10.70;64.84;95471.06;5010561;28;20376;-75
2022/10/04 00:29:25;;;;;;;6.30;2.00;;;;;;;10.78;64.43;95467.88;5011284;28;20112;-75
2022/10/04 00:32:09;;;;;;;3.80;2.03;;;;;;;10.83;64.34;95465.22;5011257;28;20472;-76
2022/10/04 00:34:34;;;;;;;6.00;1.90;;;;;;;10.78;64.63;95460.72;4993164;28;20040;-76
2022/10/04 00:37:00;;;;;;;4.90;2.15;;;;;;;10.90;64.01;95455.13;5010696;28;20022;-76
2022/10/04 00:39:54;;;;;;;4.32;2.03;;;;;;;10.99;63.94;95461.47;5010804;28;20526;-76
2022/10/04 00:42:32;;;;;;;6.85;2.17;;;;;;;10.91;63.72;95447.97;4993141;28;20176;-76
2022/10/04 00:45:04;;;;;;;3.35;1.90;;;;;;;10.90;63.32;95451.69;4992918;28;20040;-76
2022/10/04 00:47:44;;;;;;;5.68;2.08;;;;;;;10.69;64.22;95445.59;4992749;28;20053;-76
2022/10/04 00:50:26;;;;;;;5.32;2.10;;;;;;;10.23;64.03;95387.28;4993002;28;20496;-75
2022/10/04 00:52:55;;;;;;;3.13;2.17;;;;;;;10.54;64.56;95413.78;4976597;28;20463;-75
2022/10/04 00:55:33;;;;;;;3.47;2.00;;;;;;;10.61;64.47;95431.00;5010816;28;20040;-75
2022/10/04 00:58:02;;;;;;;6.88;2.00;;;;;;;9.66;64.72;95316.00;4992296;28;20036;-75
2022/10/04 01:00:32;;;;;;;7.57;2.10;;;;;;;9.97;65.29;95346.75;5010372;28;20041;-75
2022/10/04 01:03:02;;;;;;;3.55;2.03;;;;;;;10.29;64.83;95407.47;5010540;28;20030;-75
2022/10/04 01:05:33;;;;;;;5.13;2.05;;;;;;;10.28;65.29;95427.06;4992789;28;20029;-76
2022/10/04 01:08:14;;;;;;;2.70;2.00;;;;;;;9.89;65.20;95355.22;5010332;28;20508;-76
2022/10/04 01:10:46;;;;;;;4.25;1.80;;;;;;;10.33;64.50;95426.25;5010492;28;20044;-75
2022/10/04 01:13:26;;;;;;;4.07;1.85;;;;;;;10.31;64.16;95442.44;5010304;28;20033;-75
2022/10/04 01:16:11;;;;;;;3.17;1.55;;;;;;;10.31;64.44;95433.69;4992308;28;20113;-75
2022/10/04 01:18:36;;;;;;;9.07;2.30;;;;;;;10.23;64.07;95429.69;5009481;28;20050;-75
2022/10/04 01:21:25;;;;;;;8.02;1.88;;;;;;;10.17;64.42;95406.91;5009990;28;20496;-75
2022/10/04 01:24:11;;;;;;;2.53;1.67;;;;;;;10.22;64.21;95392.88;4992615;28;20034;-76
2022/10/04 01:26:40;;;;;;;5.65;1.77;;;;;;;10.48;64.22;95430.75;4975562;28;20388;-77
2022/10/04 01:29:27;;;;;;;2.20;1.50;;;;;;;10.53;63.87;95433.44;4992268;28;20124;-79
2022/10/04 01:31:54;;;;;;;3.45;1.70;;;;;;;10.23;63.74;95397.09;5010378;28;20091;-76
2022/10/04 01:34:23;;;;;;;3.50;1.85;;;;;;;10.12;63.87;95383.03;5010154;28;20029;-76
2022/10/04 01:36:51;;;;;;;3.70;2.13;;;;;;;10.28;64.30;95413.03;4992241;28;20021;-76
2022/10/04 01:39:19;;;;;;;4.25;1.98;;;;;;;10.30;64.16;95426.78;4991951;28;20030;-76
2022/10/04 01:41:57;;;;;;;4.88;1.50;;;;;;;10.11;64.20;95400.00;5010178;28;20026;-75
2022/10/04 01:44:32;;;;;;;2.45;1.58;;;;;;;9.93;63.93;95384.59;4992256;28;20419;-76
2022/10/04 01:47:08;;;;;;;4.47;1.58;;;;;;;9.81;64.31;95371.63;4992022;28;20026;-76
2022/10/04 01:49:37;;;;;;;3.45;1.45;;;;;;;9.97;64.22;95393.63;5009831;28;20119;-76
2022/10/04 01:52:09;;;;;;;4.40;1.90;;;;;;;10.36;63.72;95429.19;4992217;28;20028;-76
2022/10/04 01:54:42;;;;;;;4.95;1.58;;;;;;;9.93;63.87;95366.84;5009862;28;20178;-75
2022/10/04 01:57:19;;;;;;;4.45;1.75;;;;;;;10.35;63.58;95432.09;5010089;28;20041;-75
2022/10/04 02:00:07;;;;;;;2.83;1.60;;;;;;;9.81;63.27;95354.94;4991704;28;20416;-75
2022/10/04 02:02:51;;;;;;;5.50;1.83;;;;;;;10.23;64.08;95442.16;5009954;28;20034;-75
2022/10/04 02:05:25;;;;;;;5.85;1.83;;;;;;;10.19;63.72;95433.16;5010065;28;20395;-76
2022/10/04 02:07:54;;;;;;;6.30;1.88;;;;;;;10.13;64.69;95444.78;5010010;28;20034;-76
2022/10/04 02:10:22;;;;;;;5.47;1.70;;;;;;;9.72;64.11;95372.41;4991678;28;20503;-76
2022/10/04 02:12:51;;;;;;;6.70;1.80;;;;;;;9.83;64.22;95413.75;5009797;28;20029;-76
2022/10/04 02:15:19;;;;;;;5.07;1.67;;;;;;;9.82;64.71;95409.50;4991864;28;20115;-76
2022/10/04 02:17:47;;;;;;;2.90;1.48;;;;;;;10.04;64.57;95450.59;4992186;28;20434;-77
2022/10/04 02:20:20;;;;;;;3.90;1.67;;;;;;;9.81;64.46;95415.84;5009006;28;20054;-76
2022/10/04 02:23:01;;;;;;;3.33;1.92;;;;;;;9.98;64.79;95454.31;4991955;28;20565;-76
2022/10/04 02:25:27;;;;;;;3.90;1.70;;;;;;;9.38;65.03;95362.28;4991928;28;20479;-76
2022/10/04 02:27:53;;;;;;;3.65;2.33;;;;;;;9.63;65.27;95390.66;5009581;28;20451;-77
2022/10/04 02:30:19;;;;;;;1.80;1.60;;;;;;;10.10;65.33;95442.66;5009153;28;20038;-76
2022/10/04 02:32:58;;;;;;;2.95;1.70;;;;;;;9.90;64.75;95424.88;4991950;28;20060;-77
2022/10/04 02:35:37;;;;;;;4.28;1.70;;;;;;;10.02;65.67;95451.91;4991870;28;20069;-76
2022/10/04 02:38:16;;;;;;;2.08;1.55;;;;;;;10.05;65.09;95460.16;5009694;28;20037;-76
2022/10/04 02:40:44;;;;;;;5.85;1.52;;;;;;;9.03;66.15;95322.47;4991283;28;20030;-76
2022/10/04 02:43:23;;;;;;;4.82;1.88;;;;;;;9.82;65.66;95451.88;5009988;28;20034;-77
2022/10/04 02:46:06;;;;;;;7.93;1.90;;;;;;;9.90;65.85;95464.63;4995046;28;20030;-76
2022/10/04 02:48:52;;;;;;;3.05;1.90;;;;;;;9.81;66.12;95445.78;5013122;28;20038;-76
2022/10/04 02:51:18;;;;;;;2.20;1.90;;;;;;;9.78;67.31;95474.63;5012732;28;20148;-76
2022/10/04 02:54:01;;;;;;;5.53;1.90;;;;;;;9.88;66.91;95462.22;5012953;28;20088;-76
2022/10/04 02:56:27;;;;;;;3.72;2.15;;;;;;;9.88;66.60;95458.78;5012551;28;20058;-76
2022/10/04 02:58:59;;;;;;;4.30;2.30;;;;;;;9.98;66.86;95466.75;5012622;28;20456;-76
2022/10/04 03:01:36;;;;;;;;;;;;;;;9.93;66.54;95464.88;5012930;28;20033;-76
2022/10/04 03:04:01;;;;;;;6.00;2.88;;;;;;;9.69;66.89;95455.81;5012996;28;19932;-76
2022/10/04 03:06:31;;;;;;;6.75;2.33;;;;;;;9.58;67.24;95452.34;5012563;28;20025;-76
2022/10/04 03:09:00;;;;;;;8.25;3.10;;;;;;;9.75;67.75;95483.94;5012559;28;20613;-76
2022/10/04 03:11:33;;;;;;;6.90;2.45;;;;;;;9.65;66.91;95452.91;4994571;28;20088;-76
2022/10/04 03:14:02;;;;;;;6.90;2.08;;;;;;;9.12;66.96;95364.06;4995225;28;20116;-76
2022/10/04 03:16:34;;;;;;;6.50;1.90;;;;;;;9.81;66.74;95488.19;5012237;28;20029;-76
2022/10/04 03:19:00;;;;;;;8.55;1.88;;;;;;;9.53;67.22;95451.53;5012206;28;20074;-76
2022/10/04 03:21:26;;;;;;;5.55;1.92;;;;;;;9.79;67.47;95484.97;5011852;28;20030;-75
2022/10/04 03:23:52;;;;;;;5.72;2.03;;;;;;;9.62;67.06;95442.81;4994462;28;20048;-75
2022/10/04 03:26:41;;;;;;;3.97;2.10;;;;;;;9.89;66.59;95497.47;5012315;28;20649;-75
2022/10/04 03:29:10;;;;;;;5.18;2.00;;;;;;;9.93;67.08;95503.81;5012325;28;20034;-75
2022/10/04 03:31:44;;;;;;;6.20;2.30;;;;;;;9.99;66.75;95500.16;4994325;28;20104;-76
2022/10/04 03:34:21;;;;;;;17.55;2.70;;;;;;;9.87;66.36;95476.53;5011658;28;20085;-76
2022/10/04 03:36:48;;;;;;;2.75;1.70;;;;;;;10.06;66.01;95495.41;5012075;28;20042;-76
2022/10/04 03:39:37;;;;;;;3.15;1.83;;;;;;;10.04;66.88;95506.25;4994372;28;20038;-76
2022/10/04 03:42:25;;;;;;;4.28;2.28;;;;;;;9.94;65.94;95471.78;5012045;28;20116;-76
2022/10/04 03:44:55;;;;;;;5.15;3.15;;;;;;;9.83;65.66;95456.94;4994041;28;20045;-75
2022/10/04 03:47:25;;;;;;;5.50;2.08;;;;;;;10.09;65.58;95505.47;5011919;28;20030;-75
2022/10/04 03:49:53;;;;;;;7.43;1.98;;;;;;;10.13;65.70;95505.75;4993979;28;20037;-76
2022/10/04 03:52:26;;;;;;;5.90;2.10;;;;;;;10.20;65.87;95508.97;4993779;28;20034;-76
2022/10/04 03:54:56;;;;;;;6.32;2.15;;;;;;;9.95;66.21;95457.47;5008449;28;20111;-76
2022/10/04 03:57:22;;;;;;;4.00;2.30;;;;;;;9.92;65.75;95481.81;4990900;28;20040;-76
2022/10/04 03:59:48;;;;;;;4.03;2.22;;;;;;;9.73;66.62;95446.31;4991787;28;20034;-76
2022/10/04 04:02:35;;;;;;;3.92;2.00;;;;;;;9.66;65.80;95456.34;4987611;28;20392;-75
2022/10/04 04:05:20;;;;;;;3.60;2.03;;;;;;;10.11;65.88;95523.75;5006711;28;20453;-75
2022/10/04 04:08:23;;;;;;;3.85;2.33;;;;;;;9.65;66.12;95449.47;5019728;28;20435;-76
2022/10/04 04:10:52;;;;;;;4.43;2.15;;;;;;;10.11;66.06;95503.34;4996482;28;20042;-76
2022/10/04 04:13:51;;;;;;;10.27;2.53;;;;;;;10.18;65.80;95529.63;4987727;28;20041;-76
2022/10/04 04:16:24;;;;;;;3.85;2.60;;;;;;;9.80;66.32;95473.34;5008552;28;20129;-76
2022/10/04 04:18:53;;;;;;;8.80;3.33;;;;;;;10.03;65.59;95495.91;4984773;28;20136;-76
2022/10/04 04:21:23;;;;;;;9.70;2.50;;;;;;;9.97;65.88;95487.16;4986828;28;20049;-75
2022/10/04 04:24:01;;;;;;;4.05;2.60;;;;;;;10.10;66.32;95541.50;4997029;28;20120;-76
2022/10/04 04:26:27;;;;;;;3.67;2.38;;;;;;;10.03;66.47;95538.31;5000511;28;20045;-75
2022/10/04 04:29:21;;;;;;;11.45;2.78;;;;;;;9.99;66.45;95537.25;4980708;28;20033;-75
2022/10/04 04:32:04;;;;;;;7.75;2.67;;;;;;;9.95;67.02;95538.81;4971806;28;20053;-75
2022/10/04 04:34:32;;;;;;;5.45;3.30;;;;;;;8.87;66.79;95382.47;4994150;28;20034;-75
2022/10/04 04:37:01;;;;;;;6.03;3.05;;;;;;;9.68;66.86;95480.72;4982014;28;20048;-75
2022/10/04 04:39:38;;;;;;;12.50;2.95;;;;;;;9.78;66.58;95507.22;4986901;28;20038;-75
2022/10/04 04:42:10;;;;;;;11.07;3.60;;;;;;;10.07;66.75;95542.81;5007365;28;20037;-76
2022/10/04 04:44:39;;;;;;;6.10;2.78;;;;;;;9.86;66.58;95495.31;5001073;28;20484;-76
2022/10/04 04:47:08;;;;;;;7.50;2.95;;;;;;;10.02;65.98;95518.16;5005406;28;20048;-76
2022/10/04 04:49:38;;;;;;;8.85;3.42;;;;;;;10.17;65.87;95522.69;4985690;28;20461;-77
2022/10/04 04:52:04;;;;;;;5.80;2.80;;;;;;;10.03;66.56;95502.00;4986389;28;20087;-76
2022/10/04 04:54:30;;;;;;;8.75;4.20;;;;;;;10.36;65.62;95537.09;4999901;28;20041;-76
2022/10/04 04:56:56;;;;;;;19.10;3.90;;;;;;;10.06;65.36;95500.69;4977642;28;20547;-77
2022/10/04 04:59:25;;;;;;;12.60;3.53;;;;;;;10.25;65.20;95536.25;5001425;28;20506;-76
2022/10/04 05:01:52;;;;;;;7.68;3.75;;;;;;;10.14;65.44;95512.63;4981669;28;20022;-77
2022/10/04 05:04:27;;;;;;;6.13;2.80;;;;;;;10.19;65.54;95550.56;4997608;28;20101;-78
2022/10/04 05:07:03;;;;;;;9.10;3.25;;;;;;;9.53;65.14;95435.66;4972498;28;20497;-76
2022/10/04 05:09:39;;;;;;;5.70;3.00;;;;;;;10.25;65.18;95559.31;4994104;28;20075;-78
2022/10/04 05:12:19;;;;;;;8.52;3.15;;;;;;;10.27;64.95;95559.88;4969126;28;20030;-78
2022/10/04 05:14:53;;;;;;;8.60;4.22;;;;;;;10.02;64.98;95529.56;4971759;28;20125;-79
2022/10/04 05:17:33;;;;;;;6.28;3.88;;;;;;;10.13;65.13;95521.66;4988971;28;20038;-76
2022/10/04 05:20:01;;;;;;;6.03;3.92;;;;;;;10.31;64.76;95553.78;4992583;28;20591;-77
2022/10/04 05:22:29;;;;;;;5.00;3.50;;;;;;;10.02;64.26;95529.56;4986692;28;20030;-78
2022/10/04 05:25:01;;;;;;;6.25;3.30;;;;;;;10.24;64.71;95560.38;4975313;28;20640;-78
2022/10/04 05:27:43;;;;;;;4.85;3.05;;;;;;;10.19;65.50;95563.81;4960747;28;20037;-78
2022/10/04 05:30:21;;;;;;;8.77;2.53;;;;;;;10.02;65.78;95571.16;4978838;28;20033;-78
2022/10/04 05:33:10;;;;;;;4.70;2.80;;;;;;;10.03;65.78;95565.59;4989897;28;20053;-78
2022/10/04 05:35:49;;;;;;;8.95;3.78;;;;;;;9.97;65.50;95553.41;4978921;28;20034;-78
2022/10/04 05:38:41;;;;;;;8.85;3.70;;;;;;;9.81;65.83;95525.25;4976900;28;20124;-78
2022/10/04 05:41:30;;;;;;;;;;;;;;;10.13;65.52;95580.75;4994830;28;20034;-78
2022/10/04 05:43:56;;;;;;;4.72;3.30;;;;;;;9.60;66.00;95528.88;4999306;28;20328;-79
2022/10/04 05:46:24;;;;;;;5.63;3.42;;;;;;;10.02;66.27;95582.56;4995775;28;20033;-78
2022/10/04 05:49:05;;;;;;;5.88;2.95;;;;;;;9.38;65.94;95493.84;4974581;28;20034;-78
2022/10/04 05:51:37;;;;;;;8.00;2.65;;;;;;;9.63;66.12;95529.16;4996504;28;20026;-78
2022/10/04 05:54:04;;;;;;;6.65;2.90;;;;;;;9.70;66.38;95536.84;4969079;28;20030;-79
2022/10/04 05:56:29;;;;;;;5.55;3.10;;;;;;;10.13;66.85;95595.84;4977330;28;20446;-77
2022/10/04 05:59:28;;;;;;;6.28;3.40;;;;;;;10.12;65.84;95618.09;4976106;28;20897;-77
2022/10/04 06:02:31;;;;;;;8.82;3.10;;;;;;;10.13;66.37;95609.09;4969473;28;20033;-79
2022/10/04 06:05:33;;;;;;;6.80;3.33;;;;;;;10.09;66.63;95624.72;4986012;28;20378;-79
2022/10/04 06:08:08;;;;;;;7.63;3.30;;;;;;;10.17;66.44;95610.16;4972506;28;20120;-80
2022/10/04 06:11:26;;;;;;;8.05;3.53;;;;;;;9.96;66.59;95588.09;4975795;28;20046;-77
2022/10/04 06:14:05;;;;;;;10.07;3.33;;;;;;;10.23;66.34;95625.84;4936206;28;20037;-78
2022/10/04 06:16:48;;;;;;;6.55;3.08;;;;;;;10.23;66.00;95625.03;4986400;28;20038;-78
2022/10/04 06:19:27;;;;;;;7.53;3.58;;;;;;;10.15;66.99;95630.81;4990655;28;20054;-77
2022/10/04 06:22:15;;;;;;;7.65;2.70;;;;;;;10.12;67.37;95626.06;4990914;28;20531;-79
2022/10/04 06:24:46;;;;;;;4.68;2.72;;;;;;;10.08;66.73;95631.84;4974040;28;20121;-79
2022/10/04 06:27:17;;;;;;;7.68;3.13;;;;;;;10.00;67.16;95644.81;4978399;28;20574;-78
2022/10/04 06:30:00;;;;;;;7.53;2.55;;;;;;;9.93;67.47;95639.75;5001322;28;20037;-78
2022/10/04 06:32:28;;;;;;;8.27;2.60;;;;;;;10.04;66.99;95646.69;4992884;28;20218;-78
2022/10/04 06:35:03;;;;;;;9.02;3.95;;;;;;;10.06;67.77;95646.44;4973611;28;20034;-77
2022/10/04 06:37:48;;;;;;;8.88;3.58;;;;;;;10.01;66.14;95628.66;4976393;28;20040;-78
2022/10/04 06:40:42;;;;;;;5.90;3.45;;;;;;;10.15;66.66;95644.88;4989972;28;20025;-78
2022/10/04 06:43:28;;;;;;;6.40;2.92;;;;;;;10.23;66.25;95640.94;4974827;28;20033;-79
2022/10/04 06:46:15;;;;;;;3.35;2.30;;;;;;;10.29;66.70;95643.38;4996442;28;20030;-78
2022/10/04 06:48:41;;;;;;;8.48;2.92;;;;;;;10.39;66.61;95645.25;4976236;28;20063;-78
2022/10/04 06:51:13;;;;;;;5.78;2.90;;;;;;;10.57;65.71;95678.47;4981164;28;20407;-78
2022/10/04 06:53:45;;;;;;;4.40;2.40;;;;;;;10.54;65.54;95674.47;4955345;28;20045;-80
2022/10/04 06:56:13;;;;;;;;;;;;;;;10.51;64.36;95680.31;4974180;28;20045;-78
2022/10/04 06:58:52;;;;;;;9.02;2.90;;;;;;;10.22;64.96;95623.47;4996508;28;19925;-80
2022/10/04 07:01:18;;;;;;;4.75;2.72;;;;;;;10.60;64.85;95646.13;4978963;28;20042;-80
2022/10/04 07:04:22;;;;;;;6.78;2.83;;;;;;;10.77;64.51;95663.41;4979589;28;20045;-80
2022/10/04 07:07:25;;;;;;;4.82;2.47;;;;;;;10.75;63.98;95654.13;4963517;28;20096;-80
2022/10/04 07:10:03;;;;;;;5.40;2.42;;;;;;;10.72;62.92;95659.94;4961993;28;20602;-79
2022/10/04 07:12:32;;;;;;;5.25;2.65;;;;;;;10.63;63.15;95614.56;4974482;28;20113;-76
2022/10/04 07:15:01;;;;;;;4.65;2.08;;;;;;;10.86;63.25;95652.25;4964156;28;20559;-76
2022/10/04 07:17:36;;;;;;;5.47;2.92;;;;;;;10.66;62.99;95611.38;4990321;28;20463;-76
2022/10/04 07:20:03;;;;;;;7.72;2.47;;;;;;;10.80;61.94;95635.56;4975513;28;20061;-76
2022/10/04 07:22:35;;;;;;;3.70;2.10;;;;;;;11.07;61.69;95683.06;4974994;28;20030;-76
2022/10/04 07:25:15;;;;;;;11.70;2.70;;;;;;;11.13;61.92;95663.47;4977325;28;20056;-77
2022/10/04 07:29:19;;;;;;;5.13;2.15;;;;;;;11.20;60.55;95675.41;4991519;28;20048;-76
2022/10/04 07:30:44;;;;;;;4.47;2.30;;;;;;;11.18;60.39;95669.56;4996267;28;20099;-76
2022/10/04 07:33:16;;;;;;;6.13;2.65;;;;;;;11.06;60.15;95642.47;4993413;28;20040;-76
2022/10/04 07:35:46;;;;;;;;;;;;;;;11.20;60.63;95651.50;4989935;28;20034;-76
2022/10/04 07:38:11;;;;;;;6.97;2.40;;;;;;;11.27;60.22;95669.03;4992755;28;19921;-77
2022/10/04 07:40:56;;;;;;;10.93;2.30;;;;;;;10.89;59.49;95633.97;4978735;28;20130;-76
2022/10/04 07:43:28;;;;;;;4.43;2.22;;;;;;;11.16;60.00;95668.22;4978681;28;20069;-78
2022/10/04 07:46:05;;;;;;;3.47;2.33;;;;;;;10.71;58.80;95592.03;4992714;28;20025;-79
2022/10/04 07:48:31;;;;;;;4.15;2.13;;;;;;;11.06;58.69;95671.66;4991171;28;20117;-79
2022/10/04 07:51:22;;;;;;;2.65;2.20;;;;;;;11.31;59.15;95702.75;4985146;28;20738;-78
2022/10/04 07:53:55;;;;;;;4.43;2.60;;;;;;;10.59;59.25;95602.09;4970859;28;20049;-82
2022/10/04 07:56:40;;;;;;;4.82;2.45;;;;;;;10.75;59.41;95609.03;4988727;28;20121;-80
2022/10/04 07:59:34;;;;;;;5.50;2.53;;;;;;;11.38;58.48;95697.97;4975768;28;20033;-84
2022/10/04 08:02:24;;;;;;;8.60;3.20;;;;;;;11.37;58.92;95698.22;4975608;28;20194;-79
2022/10/04 08:05:06;;;;;;;9.02;2.75;;;;;;;11.42;59.25;95696.38;4991892;28;20482;-79
2022/10/04 08:08:01;;;;;;;6.18;2.38;;;;;;;11.32;58.16;95661.06;4982988;28;20041;-79
2022/10/04 08:10:36;;;;;;;5.97;2.47;;;;;;;11.57;58.17;95708.88;4999134;28;20523;-79
2022/10/04 08:13:04;;;;;;;4.82;2.25;;;;;;;11.47;57.87;95712.31;4998335;28;20593;-80
2022/10/04 08:15:37;;;;;;;7.70;2.53;;;;;;;11.52;58.30;95704.34;4981088;28;20038;-79
2022/10/04 08:18:14;;;;;;;6.45;2.53;;;;;;;11.49;58.37;95699.56;4986786;28;20634;-80
2022/10/04 08:20:47;;;;;;;5.20;2.00;;;;;;;11.51;58.26;95668.25;4979432;28;20029;-79
2022/10/04 08:23:19;;;;;;;4.45;2.80;;;;;;;11.72;58.37;95686.81;4983184;28;20512;-79
2022/10/04 08:25:56;;;;;;;8.75;3.10;;;;;;;11.73;56.72;95678.56;4982747;28;20049;-79
2022/10/04 08:31:55;;;;;;;5.40;2.10;;;;;;;11.72;56.31;95654.91;4989142;28;20045;-79
2022/10/04 08:34:43;;;;;;;6.63;2.85;;;;;;;12.10;55.81;95677.44;4972241;28;20069;-79
2022/10/04 08:37:31;;;;;;;7.15;2.33;;;;;;;12.15;55.31;95682.75;4981558;28;20033;-80
2022/10/04 08:40:27;;;;;;;8.65;2.70;;;;;;;12.34;55.55;95679.25;4977771;28;20088;-79
2022/10/04 08:43:16;;;;;;;5.90;2.58;;;;;;;12.42;53.89;95685.84;4989664;28;20540;-80
2022/10/04 08:46:04;;;;;;;3.42;2.15;;;;;;;12.24;54.22;95687.25;4996442;28;20531;-83
2022/10/04 08:48:30;;;;;;;4.43;1.48;;;;;;;12.33;53.66;95680.31;4962659;28;20547;-78
2022/10/04 08:54:53;;;;;;;8.07;2.65;;;;;;;12.35;53.39;95680.03;5042464;27;20760;-80
2022/10/04 08:57:37;;;;;;;4.38;1.85;;;;;;;12.42;54.04;95685.84;5051709;28;20040;-78
2022/10/04 09:00:14;;;;;;;6.50;2.35;;;;;;;12.48;54.21;95678.66;5050756;28;20472;-78
2022/10/04 09:03:25;;;;;;;4.00;1.95;;;;;;;12.44;53.69;95688.22;5052196;28;20025;-79
2022/10/04 09:05:56;;;;;;;3.88;2.17;;;;;;;12.43;54.50;95674.16;5022731;28;20848;-79
2022/10/04 09:08:22;;;;;;;;;;;;;;;12.74;54.80;95690.75;5053500;28;20134;-78
2022/10/04 09:10:57;;;;;;;4.13;2.17;;;;;;;12.44;54.06;95608.41;5049271;28;20034;-79
2022/10/04 09:13:48;;;;;;;3.25;1.90;;;;;;;12.80;53.51;95683.56;5053078;28;20036;-78
2022/10/04 09:16:17;;;;;;;5.80;2.42;;;;;;;12.84;54.23;95668.59;5055589;28;21041;-80
2022/10/04 09:19:10;;;;;;;2.97;2.38;;;;;;;12.84;53.75;95672.06;5055785;28;20083;-79
2022/10/04 09:21:54;;;;;;;3.92;1.73;;;;;;;12.81;53.32;95679.81;5049536;28;20032;-79
2022/10/04 09:24:20;;;;;;;4.78;2.33;;;;;;;12.89;53.51;95703.97;5054724;28;20525;-79
2022/10/04 09:27:05;;;;;;;3.20;2.20;;;;;;;12.81;53.94;95650.53;5046002;28;20032;-79
2022/10/04 09:29:51;;;;;;;6.05;2.60;;;;;;;12.47;54.16;95602.56;5052048;28;20496;-80
2022/10/04 09:32:38;;;;;;;3.47;1.83;;;;;;;12.87;53.64;95687.50;5034555;28;20711;-76
2022/10/04 09:35:16;;;;;;;5.82;2.10;;;;;;;12.58;53.66;95638.69;5046441;28;20045;-79
2022/10/04 09:37:57;;;;;;;5.75;2.05;;;;;;;12.90;53.29;95675.50;5048215;28;20322;-75
2022/10/04 09:40:44;;;;;;;3.03;1.90;;;;;;;12.95;53.25;95689.59;5049871;28;20051;-76
2022/10/04 09:43:21;;;;;;;3.80;2.10;;;;;;;12.98;53.38;95699.66;5052343;28;20041;-76
2022/10/04 09:45:46;;;;;;;4.85;2.10;;;;;;;13.11;54.01;95696.41;5035971;28;20056;-77
2022/10/04 09:48:24;;;;;;;9.07;2.60;;;;;;;13.43;52.74;95677.28;5041663;28;20041;-77
2022/10/04 09:50:53;;;;;;;3.30;2.00;;;;;;;13.99;50.98;95678.63;5051239;28;20040;-76
2022/10/04 09:53:19;;;;;;;4.60;1.92;;;;;;;14.53;48.98;95695.16;5043436;28;20067;-76
2022/10/04 09:56:17;;;;;;;3.88;2.10;;;;;;;14.74;48.16;95644.94;5045452;28;20580;-77
2022/10/04 09:58:55;;;;;;;3.90;2.55;;;;;;;15.19;47.56;95674.75;5043100;28;20059;-77
2022/10/04 10:01:41;;;;;;;3.88;1.70;;;;;;;15.74;46.50;95684.59;5040180;28;20094;-77
2022/10/04 10:04:07;;;;;;;4.75;2.05;;;;;;;16.01;45.39;95675.84;5046334;28;20029;-77
2022/10/04 10:06:35;;;;;;;3.63;1.50;;;;;;;16.16;45.15;95691.63;5032817;28;20078;-77
2022/10/04 10:09:20;;;;;;;2.30;1.98;;;;;;;16.23;44.51;95671.72;5030247;28;20039;-78
2022/10/04 10:15:08;;;;;;;4.78;1.70;;;;;;;15.95;44.71;95698.41;5026341;28;20040;-77
2022/10/04 10:17:55;;;;;;;2.10;1.88;;;;;;;16.17;44.08;95684.41;5028317;28;20138;-77
2022/10/04 10:20:33;;;;;;;4.88;1.98;;;;;;;16.42;43.37;95685.78;5032135;28;20574;-78
2022/10/04 10:23:37;;;;;;;7.47;2.00;;;;;;;16.71;43.31;95672.09;5022609;28;20047;-79
2022/10/04 10:26:08;;;;;;;6.90;1.60;;;;;;;16.38;44.28;95680.25;5017668;28;20581;-77
2022/10/04 10:29:01;;;;;;;5.13;1.92;;;;;;;16.53;43.73;95679.94;5016270;28;20109;-78
2022/10/04 10:31:42;;;;;;;4.28;1.63;;;;;;;16.17;44.92;95679.81;5017675;28;20762;-77
2022/10/04 10:34:16;;;;;;;3.53;1.70;;;;;;;16.07;44.51;95649.78;5016858;28;20406;-78
2022/10/04 10:36:58;;;;;;;4.13;1.65;;;;;;;16.21;44.40;95672.00;5031573;28;20029;-77
2022/10/04 10:39:39;;;;;;;5.00;1.92;;;;;;;16.16;44.41;95683.59;5026419;28;20501;-77
2022/10/04 10:42:09;;;;;;;2.83;1.52;;;;;;;16.12;44.67;95701.31;5031852;28;20115;-77
2022/10/04 10:45:04;;;;;;;3.60;2.25;;;;;;;15.68;45.61;95704.50;5035176;28;20557;-77
2022/10/04 10:47:49;;;;;;;2.78;2.08;;;;;;;15.50;46.14;95699.13;5030991;28;20094;-77
2022/10/04 10:50:14;;;;;;;3.15;2.20;;;;;;;15.42;46.53;95688.03;5052937;28;20040;-78
2022/10/04 10:53:19;;;;;;;3.05;1.88;;;;;;;15.42;46.62;95705.94;5031733;28;20570;-77
2022/10/04 10:56:13;;;;;;;2.97;2.15;;;;;;;15.43;46.50;95686.94;5031638;28;20140;-77
2022/10/04 10:59:05;;;;;;;3.60;2.10;;;;;;;15.31;46.26;95686.59;5032352;28;20044;-77
2022/10/04 11:02:03;;;;;;;2.88;1.92;;;;;;;15.27;46.60;95679.44;5014489;28;20652;-77
2022/10/04 11:05:16;;;;;;;7.15;2.20;;;;;;;15.18;46.58;95681.22;5032249;28;20048;-77
2022/10/04 11:07:53;;;;;;;8.00;2.40;;;;;;;14.91;47.81;95685.31;5015670;28;20049;-76
2022/10/04 11:10:40;;;;;;;2.92;2.10;;;;;;;14.83;47.42;95703.84;5029897;28;20040;-77
2022/10/04 11:13:27;;;;;;;1.98;1.75;;;;;;;14.51;47.53;95696.50;5026555;28;20040;-77
2022/10/04 11:16:20;;;;;;;3.17;2.00;;;;;;;14.55;47.86;95692.19;5028305;28;20039;-77
2022/10/04 11:19:14;;;;;;;4.20;2.45;;;;;;;14.47;48.43;95693.63;5030280;28;20103;-77
2022/10/04 11:21:55;;;;;;;7.63;2.15;;;;;;;14.53;47.56;95695.16;5015081;28;20053;-76
2022/10/04 11:24:27;;;;;;;41.05;16.88;;;;;;;14.70;47.92;95701.88;5030113;28;20090;-77
2022/10/04 11:27:17;;;;;;;4.32;2.50;;;;;;;14.86;47.06;95692.59;5030023;28;20037;-77
2022/10/04 11:30:03;;;;;;;3.58;1.70;;;;;;;15.11;46.45;95699.44;5031060;28;20040;-77
2022/10/04 11:33:03;;;;;;;4.88;2.15;;;;;;;15.31;45.43;95696.50;5026713;28;20045;-77
2022/10/04 11:35:47;;;;;;;4.32;1.58;;;;;;;15.59;45.00;95684.84;5033605;28;20047;-77
2022/10/04 11:38:34;;;;;;;6.78;2.20;;;;;;;16.16;44.57;95674.78;5028327;28;20029;-76
2022/10/04 11:41:13;;;;;;;3.72;2.20;;;;;;;16.54;44.33;95683.41;5028706;28;20028;-77
2022/10/04 11:44:14;;;;;;;4.57;2.03;;;;;;;16.69;43.45;95683.13;5029699;28;20039;-77
2022/10/04 11:46:59;;;;;;;6.60;1.90;;;;;;;16.71;43.79;95704.22;5034082;28;21166;-77
2022/10/04 11:49:34;;;;;;;3.17;2.15;;;;;;;16.64;42.98;95699.28;5031131;28;20187;-77
2022/10/04 11:52:18;;;;;;;5.70;2.35;;;;;;;16.56;43.17;95665.13;5030497;28;20495;-76
2022/10/04 11:55:02;;;;;;;11.40;2.50;;;;;;;16.45;43.81;95699.38;5032379;28;20132;-78
2022/10/04 11:57:52;;;;;;;11.70;2.50;;;;;;;15.97;44.53;95637.41;5033979;28;20033;-77
2022/10/04 12:00:24;;;;;;;5.97;2.20;;;;;;;16.01;44.87;95702.59;5030019;28;20044;-78
2022/10/04 12:02:55;;;;;;;5.15;1.88;;;;;;;15.63;45.49;95698.44;5013856;28;20547;-77
2022/10/04 12:05:39;;;;;;;;;;;;;;;15.56;45.68;95687.34;5018841;28;20116;-77
2022/10/04 12:08:20;;;;;;;2.55;1.90;;;;;;;15.50;45.80;95699.13;5027563;28;19959;-78
2022/10/04 12:11:05;;;;;;;5.55;3.00;;;;;;;15.28;45.76;95686.38;5031476;28;20036;-77
2022/10/04 12:14:08;;;;;;;6.50;2.55;;;;;;;15.22;45.92;95647.47;5014909;28;20045;-77
2022/10/04 12:16:57;;;;;;;11.07;2.63;;;;;;;15.45;45.47;95684.78;5027854;28;20823;-77
2022/10/04 12:19:56;;;;;;;5.97;1.95;;;;;;;15.56;45.34;95674.75;5025409;28;20499;-77
2022/10/04 12:22:43;;;;;;;8.80;2.67;;;;;;;15.57;44.29;95640.78;5030169;28;20141;-78
2022/10/04 12:25:31;;;;;;;7.60;2.38;;;;;;;16.10;43.88;95695.47;5031740;28;20185;-78
2022/10/04 12:28:16;;;;;;;5.40;2.33;;;;;;;16.41;43.62;95673.47;5030248;28;20121;-77
2022/10/04 12:30:45;;;;;;;3.38;1.90;;;;;;;16.89;43.07;95690.72;5032838;28;20106;-78
2022/10/04 12:33:40;;;;;;;3.08;1.65;;;;;;;17.02;42.23;95685.63;5035312;28;20079;-79
2022/10/04 12:36:30;;;;;;;5.50;2.40;;;;;;;17.58;41.77;95688.63;5047366;28;20473;-77
2022/10/04 12:39:02;;;;;;;3.65;2.15;;;;;;;17.18;41.25;95690.34;5029216;28;20143;-76